Weather at Shenandoah Valley Regional Airport

Public forecast

Using degrees Fahrenheit for public forecast. Weather courtesy of forecast.io.

Current aviation weather report (METAR) for Shenandoah Valley Regional Airport

Retrieved 2020/11/28 04:35 UTC (7 minutes ago):

KSHD 280435Z AUTO 00000KT 10SM CLR 05/03 A3005 RMK AO2 T00490033

Closest aviation forecast (TAF) to Shenandoah Valley Regional Airport

Closest forecast is Charlottesville Albemarle Airport, 22.2 nm (41.2 km) ESE. Retrieved 2020-11-28 00:22 UTC (4 hours ago):

TAF KCHO 272320Z 2800/2824 19003KT P6SM FEW045 BKN060 FM280100 33003KT P6SM FEW030 SCT070 FM280700 00000KT 6SM BR FEW080 SCT200 FM281300 30003KT P6SM FEW250 FM281700 28007KT P6SM FEW250 FM282300 34004KT P6SM SKC